sensor_id;sensor_type;location;lat;lon;timestamp;temperature;humidity
32506;DHT22;18955;51.224;8.482;2023-07-13T00:00:05;17.90;64.60
32506;DHT22;18955;51.224;8.482;2023-07-13T00:02:41;17.90;64.40
32506;DHT22;18955;51.224;8.482;2023-07-13T00:05:08;17.90;64.50
32506;DHT22;18955;51.224;8.482;2023-07-13T00:07:35;17.80;64.50
32506;DHT22;18955;51.224;8.482;2023-07-13T00:10:03;17.80;64.60
32506;DHT22;18955;51.224;8.482;2023-07-13T00:12:34;17.70;64.50
32506;DHT22;18955;51.224;8.482;2023-07-13T00:15:09;17.70;64.70
32506;DHT22;18955;51.224;8.482;2023-07-13T00:17:35;17.70;64.80
32506;DHT22;18955;51.224;8.482;2023-07-13T00:20:05;17.60;64.90
32506;DHT22;18955;51.224;8.482;2023-07-13T00:22:31;17.60;64.80
32506;DHT22;18955;51.224;8.482;2023-07-13T00:24:57;17.60;64.80
32506;DHT22;18955;51.224;8.482;2023-07-13T00:27:24;17.60;65.00
32506;DHT22;18955;51.224;8.482;2023-07-13T00:29:52;17.50;64.90
32506;DHT22;18955;51.224;8.482;2023-07-13T00:32:19;17.50;65.00
32506;DHT22;18955;51.224;8.482;2023-07-13T00:34:45;17.50;65.20
32506;DHT22;18955;51.224;8.482;2023-07-13T00:37:11;17.40;65.80
32506;DHT22;18955;51.224;8.482;2023-07-13T00:39:37;17.40;65.10
32506;DHT22;18955;51.224;8.482;2023-07-13T00:42:05;17.40;65.00
32506;DHT22;18955;51.224;8.482;2023-07-13T00:44:31;17.40;65.10
32506;DHT22;18955;51.224;8.482;2023-07-13T00:46:57;17.30;65.30
32506;DHT22;18955;51.224;8.482;2023-07-13T00:49:26;17.30;65.20
32506;DHT22;18955;51.224;8.482;2023-07-13T00:51:59;17.30;65.10
32506;DHT22;18955;51.224;8.482;2023-07-13T00:54:41;17.30;65.20
32506;DHT22;18955;51.224;8.482;2023-07-13T00:57:12;17.20;65.50
32506;DHT22;18955;51.224;8.482;2023-07-13T00:59:42;17.20;65.50
32506;DHT22;18955;51.224;8.482;2023-07-13T01:02:09;17.20;65.30
32506;DHT22;18955;51.224;8.482;2023-07-13T01:04:36;17.20;65.50
32506;DHT22;18955;51.224;8.482;2023-07-13T01:07:06;17.10;65.50
32506;DHT22;18955;51.224;8.482;2023-07-13T01:09:32;17.10;65.30
32506;DHT22;18955;51.224;8.482;2023-07-13T01:11:58;17.10;65.50
32506;DHT22;18955;51.224;8.482;2023-07-13T01:14:25;17.10;65.50
32506;DHT22;18955;51.224;8.482;2023-07-13T01:16:52;17.00;65.80
32506;DHT22;18955;51.224;8.482;2023-07-13T01:19:32;17.00;65.50
32506;DHT22;18955;51.224;8.482;2023-07-13T01:22:09;17.00;65.70
32506;DHT22;18955;51.224;8.482;2023-07-13T01:24:39;17.00;65.50
32506;DHT22;18955;51.224;8.482;2023-07-13T01:27:07;16.90;65.80
32506;DHT22;18955;51.224;8.482;2023-07-13T01:29:34;16.90;65.40
32506;DHT22;18955;51.224;8.482;2023-07-13T01:32:01;16.90;65.60
32506;DHT22;18955;51.224;8.482;2023-07-13T01:34:27;16.90;65.60
32506;DHT22;18955;51.224;8.482;2023-07-13T01:36:53;16.80;66.00
32506;DHT22;18955;51.224;8.482;2023-07-13T01:39:21;16.80;66.00
32506;DHT22;18955;51.224;8.482;2023-07-13T01:41:48;16.70;65.80
32506;DHT22;18955;51.224;8.482;2023-07-13T01:44:14;16.70;65.60
32506;DHT22;18955;51.224;8.482;2023-07-13T01:46:40;16.70;65.70
32506;DHT22;18955;51.224;8.482;2023-07-13T01:49:06;16.70;65.90
32506;DHT22;18955;51.224;8.482;2023-07-13T01:51:33;16.70;66.10
32506;DHT22;18955;51.224;8.482;2023-07-13T01:53:59;16.60;66.00
32506;DHT22;18955;51.224;8.482;2023-07-13T01:56:25;16.60;66.00
32506;DHT22;18955;51.224;8.482;2023-07-13T01:58:52;16.60;66.00
32506;DHT22;18955;51.224;8.482;2023-07-13T02:01:18;16.60;66.00
32506;DHT22;18955;51.224;8.482;2023-07-13T02:03:44;16.50;65.90
32506;DHT22;18955;51.224;8.482;2023-07-13T02:06:11;16.50;66.00
32506;DHT22;18955;51.224;8.482;2023-07-13T02:08:37;16.50;66.00
32506;DHT22;18955;51.224;8.482;2023-07-13T02:11:03;16.50;66.10
32506;DHT22;18955;51.224;8.482;2023-07-13T02:13:30;16.40;66.10
32506;DHT22;18955;51.224;8.482;2023-07-13T02:15:56;16.40;66.00
32506;DHT22;18955;51.224;8.482;2023-07-13T02:18:22;16.40;66.20
32506;DHT22;18955;51.224;8.482;2023-07-13T02:20:48;16.40;66.00
32506;DHT22;18955;51.224;8.482;2023-07-13T02:23:14;16.40;66.20
32506;DHT22;18955;51.224;8.482;2023-07-13T02:25:40;16.30;66.20
32506;DHT22;18955;51.224;8.482;2023-07-13T02:28:08;16.30;66.00
32506;DHT22;18955;51.224;8.482;2023-07-13T02:30:35;16.30;66.10
32506;DHT22;18955;51.224;8.482;2023-07-13T02:33:01;16.20;66.20
32506;DHT22;18955;51.224;8.482;2023-07-13T02:35:27;16.20;66.30
32506;DHT22;18955;51.224;8.482;2023-07-13T02:37:53;16.20;66.00
32506;DHT22;18955;51.224;8.482;2023-07-13T02:40:20;16.20;66.40
32506;DHT22;18955;51.224;8.482;2023-07-13T02:42:46;16.20;66.20
32506;DHT22;18955;51.224;8.482;2023-07-13T02:45:12;16.10;66.20
32506;DHT22;18955;51.224;8.482;2023-07-13T02:47:41;16.10;66.40
32506;DHT22;18955;51.224;8.482;2023-07-13T02:50:08;16.10;66.20
32506;DHT22;18955;51.224;8.482;2023-07-13T02:52:35;16.00;66.30
32506;DHT22;18955;51.224;8.482;2023-07-13T02:55:01;16.00;66.30
32506;DHT22;18955;51.224;8.482;2023-07-13T02:57:28;16.00;66.00
32506;DHT22;18955;51.224;8.482;2023-07-13T02:59:54;16.00;66.40
32506;DHT22;18955;51.224;8.482;2023-07-13T03:02:20;15.90;66.20
32506;DHT22;18955;51.224;8.482;2023-07-13T03:04:46;15.90;66.10
32506;DHT22;18955;51.224;8.482;2023-07-13T03:07:13;15.90;66.10
32506;DHT22;18955;51.224;8.482;2023-07-13T03:09:40;15.80;66.40
32506;DHT22;18955;51.224;8.482;2023-07-13T03:12:08;15.80;66.20
32506;DHT22;18955;51.224;8.482;2023-07-13T03:14:35;15.80;66.30
32506;DHT22;18955;51.224;8.482;2023-07-13T03:17:04;15.80;66.30
32506;DHT22;18955;51.224;8.482;2023-07-13T03:19:33;15.70;66.20
32506;DHT22;18955;51.224;8.482;2023-07-13T03:22:01;15.70;66.30
32506;DHT22;18955;51.224;8.482;2023-07-13T03:24:29;15.70;66.20
32506;DHT22;18955;51.224;8.482;2023-07-13T03:26:57;15.70;66.20
32506;DHT22;18955;51.224;8.482;2023-07-13T03:29:23;15.60;66.10
32506;DHT22;18955;51.224;8.482;2023-07-13T03:31:51;15.60;66.30
32506;DHT22;18955;51.224;8.482;2023-07-13T03:34:18;15.60;66.20
32506;DHT22;18955;51.224;8.482;2023-07-13T03:36:44;15.60;66.20
32506;DHT22;18955;51.224;8.482;2023-07-13T03:39:12;15.50;66.30
32506;DHT22;18955;51.224;8.482;2023-07-13T03:41:54;15.50;66.20
32506;DHT22;18955;51.224;8.482;2023-07-13T03:44:20;15.50;66.40
32506;DHT22;18955;51.224;8.482;2023-07-13T03:46:51;15.50;66.30
32506;DHT22;18955;51.224;8.482;2023-07-13T03:49:18;15.40;66.30
32506;DHT22;18955;51.224;8.482;2023-07-13T03:51:44;15.40;66.40
32506;DHT22;18955;51.224;8.482;2023-07-13T03:54:10;15.40;66.40
32506;DHT22;18955;51.224;8.482;2023-07-13T03:56:37;15.40;66.50
32506;DHT22;18955;51.224;8.482;2023-07-13T03:59:06;15.40;66.50
32506;DHT22;18955;51.224;8.482;2023-07-13T04:01:32;15.30;66.50
32506;DHT22;18955;51.224;8.482;2023-07-13T04:03:59;15.30;66.60
32506;DHT22;18955;51.224;8.482;2023-07-13T04:06:29;15.30;66.60
32506;DHT22;18955;51.224;8.482;2023-07-13T04:08:58;15.20;66.60
32506;DHT22;18955;51.224;8.482;2023-07-13T04:11:28;15.20;66.60
32506;DHT22;18955;51.224;8.482;2023-07-13T04:13:54;15.20;66.60
32506;DHT22;18955;51.224;8.482;2023-07-13T04:16:21;15.20;66.60
32506;DHT22;18955;51.224;8.482;2023-07-13T04:18:48;15.20;66.70
32506;DHT22;18955;51.224;8.482;2023-07-13T04:21:15;15.10;66.70
32506;DHT22;18955;51.224;8.482;2023-07-13T04:23:42;15.10;66.70
32506;DHT22;18955;51.224;8.482;2023-07-13T04:26:08;15.10;66.80
32506;DHT22;18955;51.224;8.482;2023-07-13T04:28:34;15.10;67.00
32506;DHT22;18955;51.224;8.482;2023-07-13T04:31:01;15.10;67.10
32506;DHT22;18955;51.224;8.482;2023-07-13T04:33:27;15.00;67.10
32506;DHT22;18955;51.224;8.482;2023-07-13T04:35:55;15.00;67.10
32506;DHT22;18955;51.224;8.482;2023-07-13T04:38:25;15.00;67.10
32506;DHT22;18955;51.224;8.482;2023-07-13T04:40:55;15.00;67.30
32506;DHT22;18955;51.224;8.482;2023-07-13T04:43:23;14.90;67.20
32506;DHT22;18955;51.224;8.482;2023-07-13T04:45:50;14.90;67.20
32506;DHT22;18955;51.224;8.482;2023-07-13T04:48:17;14.90;67.30
32506;DHT22;18955;51.224;8.482;2023-07-13T04:50:43;14.90;67.50
32506;DHT22;18955;51.224;8.482;2023-07-13T04:53:10;14.90;67.50
32506;DHT22;18955;51.224;8.482;2023-07-13T04:55:37;14.90;67.60
32506;DHT22;18955;51.224;8.482;2023-07-13T04:58:03;14.80;67.60
32506;DHT22;18955;51.224;8.482;2023-07-13T05:00:31;14.80;67.70
32506;DHT22;18955;51.224;8.482;2023-07-13T05:02:58;14.80;67.70
32506;DHT22;18955;51.224;8.482;2023-07-13T05:05:25;14.80;67.90
32506;DHT22;18955;51.224;8.482;2023-07-13T05:07:52;14.70;68.30
32506;DHT22;18955;51.224;8.482;2023-07-13T05:10:18;14.70;68.30
32506;DHT22;18955;51.224;8.482;2023-07-13T05:12:45;14.70;68.20
32506;DHT22;18955;51.224;8.482;2023-07-13T05:15:11;14.80;68.30
32506;DHT22;18955;51.224;8.482;2023-07-13T05:17:38;14.70;68.30
32506;DHT22;18955;51.224;8.482;2023-07-13T05:20:06;14.70;68.20
32506;DHT22;18955;51.224;8.482;2023-07-13T05:22:32;14.70;68.70
32506;DHT22;18955;51.224;8.482;2023-07-13T05:25:03;14.70;68.60
32506;DHT22;18955;51.224;8.482;2023-07-13T05:27:29;14.60;68.40
32506;DHT22;18955;51.224;8.482;2023-07-13T05:29:55;14.60;68.60
32506;DHT22;18955;51.224;8.482;2023-07-13T05:32:21;14.60;68.70
32506;DHT22;18955;51.224;8.482;2023-07-13T05:34:47;14.60;68.90
32506;DHT22;18955;51.224;8.482;2023-07-13T05:37:14;14.60;68.90
32506;DHT22;18955;51.224;8.482;2023-07-13T05:39:40;14.60;69.10
32506;DHT22;18955;51.224;8.482;2023-07-13T05:42:06;14.60;69.00
32506;DHT22;18955;51.224;8.482;2023-07-13T05:44:33;14.60;69.20
32506;DHT22;18955;51.224;8.482;2023-07-13T05:46:59;14.60;69.20
32506;DHT22;18955;51.224;8.482;2023-07-13T05:49:25;14.60;69.10
32506;DHT22;18955;51.224;8.482;2023-07-13T05:51:51;14.60;69.90
32506;DHT22;18955;51.224;8.482;2023-07-13T05:54:17;14.70;69.70
32506;DHT22;18955;51.224;8.482;2023-07-13T05:56:43;14.70;69.00
32506;DHT22;18955;51.224;8.482;2023-07-13T05:59:10;14.70;69.00
32506;DHT22;18955;51.224;8.482;2023-07-13T06:01:36;14.80;69.30
32506;DHT22;18955;51.224;8.482;2023-07-13T06:04:02;14.80;69.10
32506;DHT22;18955;51.224;8.482;2023-07-13T06:06:29;14.80;69.40
32506;DHT22;18955;51.224;8.482;2023-07-13T06:08:55;14.90;68.80
32506;DHT22;18955;51.224;8.482;2023-07-13T06:11:24;15.00;68.70
32506;DHT22;18955;51.224;8.482;2023-07-13T06:13:51;15.00;68.60
32506;DHT22;18955;51.224;8.482;2023-07-13T06:16:17;15.10;68.40
32506;DHT22;18955;51.224;8.482;2023-07-13T06:18:44;15.20;68.70
32506;DHT22;18955;51.224;8.482;2023-07-13T06:21:13;15.30;68.40
32506;DHT22;18955;51.224;8.482;2023-07-13T06:23:40;15.30;68.10
32506;DHT22;18955;51.224;8.482;2023-07-13T06:26:07;15.40;68.20
32506;DHT22;18955;51.224;8.482;2023-07-13T06:28:34;15.50;67.90
32506;DHT22;18955;51.224;8.482;2023-07-13T06:31:01;15.60;67.80
32506;DHT22;18955;51.224;8.482;2023-07-13T06:33:27;15.60;67.70
32506;DHT22;18955;51.224;8.482;2023-07-13T06:35:54;15.70;67.60
32506;DHT22;18955;51.224;8.482;2023-07-13T06:38:21;15.70;67.50
32506;DHT22;18955;51.224;8.482;2023-07-13T06:40:47;15.80;67.60
32506;DHT22;18955;51.224;8.482;2023-07-13T06:43:13;15.80;67.40
32506;DHT22;18955;51.224;8.482;2023-07-13T06:45:45;15.80;67.60
32506;DHT22;18955;51.224;8.482;2023-07-13T06:48:14;15.80;67.70
32506;DHT22;18955;51.224;8.482;2023-07-13T06:50:41;15.80;67.70
32506;DHT22;18955;51.224;8.482;2023-07-13T06:53:08;15.70;67.80
32506;DHT22;18955;51.224;8.482;2023-07-13T06:55:34;15.70;67.90
32506;DHT22;18955;51.224;8.482;2023-07-13T06:58:00;15.70;68.20
32506;DHT22;18955;51.224;8.482;2023-07-13T07:00:26;15.70;68.20
32506;DHT22;18955;51.224;8.482;2023-07-13T07:02:53;15.70;68.30
32506;DHT22;18955;51.224;8.482;2023-07-13T07:05:19;15.70;68.40
32506;DHT22;18955;51.224;8.482;2023-07-13T07:07:49;15.70;68.30
32506;DHT22;18955;51.224;8.482;2023-07-13T07:10:16;15.70;68.30
32506;DHT22;18955;51.224;8.482;2023-07-13T07:12:42;15.70;68.30
32506;DHT22;18955;51.224;8.482;2023-07-13T07:15:08;15.80;68.90
32506;DHT22;18955;51.224;8.482;2023-07-13T07:17:35;15.80;68.50
32506;DHT22;18955;51.224;8.482;2023-07-13T07:20:01;15.80;69.50
32506;DHT22;18955;51.224;8.482;2023-07-13T07:22:27;15.80;68.80
32506;DHT22;18955;51.224;8.482;2023-07-13T07:24:54;15.90;68.60
32506;DHT22;18955;51.224;8.482;2023-07-13T07:27:20;15.90;69.00
32506;DHT22;18955;51.224;8.482;2023-07-13T07:29:46;15.90;68.70
32506;DHT22;18955;51.224;8.482;2023-07-13T07:32:13;16.00;69.50
32506;DHT22;18955;51.224;8.482;2023-07-13T07:34:39;16.00;69.40
32506;DHT22;18955;51.224;8.482;2023-07-13T07:37:05;16.00;69.40
32506;DHT22;18955;51.224;8.482;2023-07-13T07:39:32;16.00;69.20
32506;DHT22;18955;51.224;8.482;2023-07-13T07:41:58;16.00;69.30
32506;DHT22;18955;51.224;8.482;2023-07-13T07:44:24;16.00;69.20
32506;DHT22;18955;51.224;8.482;2023-07-13T07:46:52;16.10;69.20
32506;DHT22;18955;51.224;8.482;2023-07-13T07:49:18;16.10;69.40
32506;DHT22;18955;51.224;8.482;2023-07-13T07:51:44;16.10;69.70
32506;DHT22;18955;51.224;8.482;2023-07-13T07:54:11;16.10;69.60
32506;DHT22;18955;51.224;8.482;2023-07-13T07:59:04;16.20;69.60
32506;DHT22;18955;51.224;8.482;2023-07-13T08:01:30;16.20;69.80
32506;DHT22;18955;51.224;8.482;2023-07-13T08:03:56;16.20;69.70
32506;DHT22;18955;51.224;8.482;2023-07-13T08:06:22;16.30;69.40
32506;DHT22;18955;51.224;8.482;2023-07-13T08:08:49;16.30;69.80
32506;DHT22;18955;51.224;8.482;2023-07-13T08:11:16;16.30;69.80
32506;DHT22;18955;51.224;8.482;2023-07-13T08:13:42;16.40;70.30
32506;DHT22;18955;51.224;8.482;2023-07-13T08:16:08;16.40;69.80
32506;DHT22;18955;51.224;8.482;2023-07-13T08:18:35;16.40;69.80
32506;DHT22;18955;51.224;8.482;2023-07-13T08:21:05;16.40;70.20
32506;DHT22;18955;51.224;8.482;2023-07-13T08:23:32;16.50;70.50
32506;DHT22;18955;51.224;8.482;2023-07-13T08:25:58;16.50;69.90
32506;DHT22;18955;51.224;8.482;2023-07-13T08:28:28;16.60;70.00
32506;DHT22;18955;51.224;8.482;2023-07-13T08:30:54;16.60;70.10
32506;DHT22;18955;51.224;8.482;2023-07-13T08:33:21;16.60;70.10
32506;DHT22;18955;51.224;8.482;2023-07-13T08:35:50;16.60;70.10
32506;DHT22;18955;51.224;8.482;2023-07-13T08:38:18;16.70;70.00
32506;DHT22;18955;51.224;8.482;2023-07-13T08:40:45;16.70;70.40
32506;DHT22;18955;51.224;8.482;2023-07-13T08:43:17;16.70;70.30
32506;DHT22;18955;51.224;8.482;2023-07-13T08:45:55;16.60;70.00
32506;DHT22;18955;51.224;8.482;2023-07-13T08:48:31;16.70;70.00
32506;DHT22;18955;51.224;8.482;2023-07-13T08:51:09;16.70;70.10
32506;DHT22;18955;51.224;8.482;2023-07-13T08:53:40;16.70;70.20
32506;DHT22;18955;51.224;8.482;2023-07-13T08:56:16;16.70;70.60
32506;DHT22;18955;51.224;8.482;2023-07-13T08:58:44;16.80;70.40
32506;DHT22;18955;51.224;8.482;2023-07-13T09:04:14;16.80;70.50
32506;DHT22;18955;51.224;8.482;2023-07-13T19:39:40;19.50;66.30
32506;DHT22;18955;51.224;8.482;2023-07-13T19:42:15;18.80;68.50
32506;DHT22;18955;51.224;8.482;2023-07-13T19:44:42;18.80;68.50
32506;DHT22;18955;51.224;8.482;2023-07-13T20:00:01;18.80;68.50
32506;DHT22;18955;51.224;8.482;2023-07-13T20:02:29;18.60;68.40
32506;DHT22;18955;51.224;8.482;2023-07-13T20:04:55;18.60;68.40
32506;DHT22;18955;51.224;8.482;2023-07-13T20:07:33;18.60;68.40
32506;DHT22;18955;51.224;8.482;2023-07-13T20:09:59;18.50;68.40
32506;DHT22;18955;51.224;8.482;2023-07-13T20:12:26;18.50;68.80
32506;DHT22;18955;51.224;8.482;2023-07-13T20:14:53;18.50;68.30
32506;DHT22;18955;51.224;8.482;2023-07-13T20:22:13;18.50;68.80
32506;DHT22;18955;51.224;8.482;2023-07-13T20:24:39;18.40;68.20
32506;DHT22;18955;51.224;8.482;2023-07-13T20:34:28;18.40;68.30
32506;DHT22;18955;51.224;8.482;2023-07-13T20:36:57;18.30;68.20
32506;DHT22;18955;51.224;8.482;2023-07-13T20:39:25;18.20;68.10
32506;DHT22;18955;51.224;8.482;2023-07-13T20:41:51;18.20;68.20
32506;DHT22;18955;51.224;8.482;2023-07-13T20:44:18;18.20;68.20
32506;DHT22;18955;51.224;8.482;2023-07-13T20:46:45;18.10;68.10
32506;DHT22;18955;51.224;8.482;2023-07-13T20:49:12;18.10;68.00
32506;DHT22;18955;51.224;8.482;2023-07-13T20:51:38;18.10;68.00
32506;DHT22;18955;51.224;8.482;2023-07-13T20:54:13;18.10;68.00
32506;DHT22;18955;51.224;8.482;2023-07-13T20:56:39;18.00;68.00
32506;DHT22;18955;51.224;8.482;2023-07-13T20:59:07;18.00;68.10
32506;DHT22;18955;51.224;8.482;2023-07-13T21:01:35;18.00;68.00
32506;DHT22;18955;51.224;8.482;2023-07-13T21:04:06;17.90;67.80
32506;DHT22;18955;51.224;8.482;2023-07-13T21:06:33;17.90;67.90
32506;DHT22;18955;51.224;8.482;2023-07-13T21:08:59;17.90;67.90
32506;DHT22;18955;51.224;8.482;2023-07-13T21:11:26;17.90;67.90
32506;DHT22;18955;51.224;8.482;2023-07-13T21:13:54;17.80;67.80
32506;DHT22;18955;51.224;8.482;2023-07-13T21:16:24;17.80;67.70
32506;DHT22;18955;51.224;8.482;2023-07-13T21:18:51;17.80;67.80
32506;DHT22;18955;51.224;8.482;2023-07-13T21:21:19;17.70;67.80
32506;DHT22;18955;51.224;8.482;2023-07-13T21:23:47;17.70;67.80
32506;DHT22;18955;51.224;8.482;2023-07-13T21:26:16;17.70;67.80
32506;DHT22;18955;51.224;8.482;2023-07-13T21:28:44;17.60;67.60
32506;DHT22;18955;51.224;8.482;2023-07-13T21:31:27;17.60;67.70
32506;DHT22;18955;51.224;8.482;2023-07-13T21:33:57;17.60;67.70
32506;DHT22;18955;51.224;8.482;2023-07-13T21:36:24;17.60;67.60
32506;DHT22;18955;51.224;8.482;2023-07-13T21:38:55;17.50;67.80
32506;DHT22;18955;51.224;8.482;2023-07-13T21:41:30;17.50;67.60
32506;DHT22;18955;51.224;8.482;2023-07-13T21:43:56;17.50;67.70
32506;DHT22;18955;51.224;8.482;2023-07-13T21:46:26;17.40;67.60
32506;DHT22;18955;51.224;8.482;2023-07-13T21:48:53;17.40;67.50
32506;DHT22;18955;51.224;8.482;2023-07-13T21:51:22;17.40;67.50
32506;DHT22;18955;51.224;8.482;2023-07-13T21:53:49;17.30;67.50
32506;DHT22;18955;51.224;8.482;2023-07-13T21:56:16;17.30;67.50
32506;DHT22;18955;51.224;8.482;2023-07-13T21:58:46;17.30;67.70
32506;DHT22;18955;51.224;8.482;2023-07-13T22:01:22;17.20;67.50
32506;DHT22;18955;51.224;8.482;2023-07-13T22:03:56;17.20;67.40
32506;DHT22;18955;51.224;8.482;2023-07-13T22:06:25;17.20;67.40
32506;DHT22;18955;51.224;8.482;2023-07-13T22:08:52;17.10;67.50
32506;DHT22;18955;51.224;8.482;2023-07-13T22:11:22;17.10;67.50
32506;DHT22;18955;51.224;8.482;2023-07-13T22:13:50;17.10;67.40
32506;DHT22;18955;51.224;8.482;2023-07-13T22:16:26;17.00;67.40
32506;DHT22;18955;51.224;8.482;2023-07-13T22:18:55;17.00;67.50
32506;DHT22;18955;51.224;8.482;2023-07-13T22:21:21;17.00;67.70
32506;DHT22;18955;51.224;8.482;2023-07-13T22:23:49;16.90;67.40
32506;DHT22;18955;51.224;8.482;2023-07-13T22:29:14;16.90;67.50
32506;DHT22;18955;51.224;8.482;2023-07-13T22:31:41;16.80;67.50
32506;DHT22;18955;51.224;8.482;2023-07-13T22:34:12;16.80;67.40
32506;DHT22;18955;51.224;8.482;2023-07-13T22:36:40;16.70;67.50
32506;DHT22;18955;51.224;8.482;2023-07-13T22:39:09;16.70;67.40
32506;DHT22;18955;51.224;8.482;2023-07-13T22:41:38;16.70;67.40
32506;DHT22;18955;51.224;8.482;2023-07-13T22:44:11;16.70;67.50
32506;DHT22;18955;51.224;8.482;2023-07-13T23:36:08;16.60;67.50
32506;DHT22;18955;51.224;8.482;2023-07-13T23:38:36;16.00;67.80
32506;DHT22;18955;51.224;8.482;2023-07-13T23:41:02;15.90;67.40
32506;DHT22;18955;51.224;8.482;2023-07-13T23:45:55;15.90;67.90
32506;DHT22;18955;51.224;8.482;2023-07-13T23:48:21;15.90;67.60
32506;DHT22;18955;51.224;8.482;2023-07-13T23:50:48;15.80;67.40
32506;DHT22;18955;51.224;8.482;2023-07-13T23:53:15;15.80;67.60
32506;DHT22;18955;51.224;8.482;2023-07-13T23:55:41;15.80;67.60
32506;DHT22;18955;51.224;8.482;2023-07-13T23:58:07;15.80;67.60
